createdAt,value
2023-05-13T00:01:49.816Z,93.20
2023-05-13T00:04:17.660Z,93.30
2023-05-13T00:06:45.235Z,93.20
2023-05-13T00:09:12.998Z,93.20
2023-05-13T00:11:40.539Z,93.30
2023-05-13T00:14:09.882Z,93.20
2023-05-13T00:16:37.792Z,93.20
2023-05-13T00:19:05.449Z,93.30
2023-05-13T00:21:33.950Z,93.40
2023-05-13T00:24:01.486Z,93.40
2023-05-13T00:26:28.970Z,93.50
2023-05-13T00:28:56.531Z,93.50
2023-05-13T00:31:24.235Z,93.50
2023-05-13T00:33:51.767Z,93.60
2023-05-13T00:36:19.248Z,93.40
2023-05-13T00:38:46.704Z,93.50
2023-05-13T00:41:14.347Z,93.70
2023-05-13T00:43:41.959Z,93.60
2023-05-13T00:46:09.651Z,93.70
2023-05-13T00:48:37.212Z,93.80
2023-05-13T00:51:05.198Z,93.90
2023-05-13T00:53:34.290Z,93.80
2023-05-13T00:56:02.217Z,93.70
2023-05-13T00:58:29.717Z,93.80
2023-05-13T01:02:11.379Z,93.80
2023-05-13T01:04:50.793Z,93.90
2023-05-13T01:07:41.975Z,94.10
2023-05-13T01:10:27.924Z,94.10
2023-05-13T01:13:12.914Z,94.00
2023-05-13T01:16:12.389Z,94.20
2023-05-13T01:18:49.753Z,94.10
2023-05-13T01:21:21.534Z,94.20
2023-05-13T01:23:49.062Z,94.10
2023-05-13T01:26:16.512Z,94.10
2023-05-13T01:28:44.088Z,94.10
2023-05-13T01:31:13.550Z,94.10
2023-05-13T01:33:42.257Z,94.30
2023-05-13T01:36:10.779Z,94.80
2023-05-13T01:38:39.542Z,94.60
2023-05-13T01:41:07.027Z,94.80
2023-05-13T01:43:34.525Z,94.90
2023-05-13T01:46:02.544Z,95.00
2023-05-13T01:48:30.168Z,95.20
2023-05-13T01:50:58.276Z,95.20
2023-05-13T01:53:25.817Z,95.40
2023-05-13T01:55:53.324Z,95.60
2023-05-13T01:58:20.910Z,95.90
2023-05-13T02:00:48.601Z,96.10
2023-05-13T02:03:16.596Z,96.20
2023-05-13T02:05:44.239Z,97.80
2023-05-13T02:08:11.709Z,99.00
2023-05-13T02:10:39.147Z,99.80
2023-05-13T02:13:06.687Z,99.90
2023-05-13T02:15:34.203Z,99.90
2023-05-13T02:18:01.886Z,99.90
2023-05-13T02:20:29.513Z,99.90
2023-05-13T02:22:57.004Z,99.90
2023-05-13T02:25:24.508Z,99.90
2023-05-13T02:27:52.044Z,99.90
2023-05-13T02:30:19.958Z,99.90
2023-05-13T02:32:47.974Z,99.90
2023-05-13T02:35:15.625Z,99.90
2023-05-13T02:37:43.680Z,99.90
2023-05-13T02:40:11.854Z,99.90
2023-05-13T02:42:39.368Z,99.90
2023-05-13T02:45:07.895Z,99.90
2023-05-13T02:47:35.727Z,99.90
2023-05-13T02:50:06.483Z,99.90
2023-05-13T02:52:39.153Z,99.90
2023-05-13T02:55:10.571Z,99.90
2023-05-13T02:57:38.078Z,99.90
2023-05-13T03:00:07.302Z,99.90
2023-05-13T03:02:37.583Z,99.90
2023-05-13T03:05:05.918Z,99.90
2023-05-13T03:07:33.429Z,99.90
2023-05-13T03:10:01.237Z,99.90
2023-05-13T03:12:28.727Z,99.90
2023-05-13T03:14:56.332Z,99.90
2023-05-13T03:17:24.070Z,99.90
2023-05-13T03:19:51.785Z,99.90
2023-05-13T03:22:19.519Z,99.90
2023-05-13T03:24:47.082Z,99.90
2023-05-13T03:27:14.685Z,99.90
2023-05-13T03:29:42.325Z,99.90
2023-05-13T03:32:09.905Z,99.90
2023-05-13T03:34:38.200Z,99.90
2023-05-13T03:37:05.941Z,99.90
2023-05-13T03:39:33.562Z,99.90
2023-05-13T03:42:01.519Z,99.90
2023-05-13T03:44:28.996Z,99.90
2023-05-13T03:46:56.647Z,99.90
2023-05-13T03:49:24.314Z,99.90
2023-05-13T03:51:51.805Z,99.90
2023-05-13T03:54:19.789Z,99.90
2023-05-13T03:56:47.256Z,99.90
2023-05-13T03:59:14.722Z,99.90
2023-05-13T04:01:42.269Z,99.90
2023-05-13T04:04:09.810Z,99.90
2023-05-13T04:06:37.282Z,99.90
2023-05-13T04:09:04.930Z,99.90
2023-05-13T04:11:33.299Z,99.90
2023-05-13T04:14:00.889Z,99.90
2023-05-13T04:16:30.205Z,99.90
2023-05-13T04:18:57.867Z,99.90
2023-05-13T04:21:25.499Z,99.90
2023-05-13T04:23:52.962Z,99.90
2023-05-13T04:26:22.271Z,99.90
2023-05-13T04:28:49.868Z,99.90
2023-05-13T04:31:19.021Z,99.90
2023-05-13T04:33:46.553Z,99.90
2023-05-13T04:36:15.182Z,99.90
2023-05-13T04:38:42.938Z,99.90
2023-05-13T04:41:10.577Z,99.90
2023-05-13T04:43:38.247Z,99.90
2023-05-13T04:46:06.277Z,99.90
2023-05-13T04:48:33.889Z,99.90
2023-05-13T04:51:01.835Z,99.90
2023-05-13T04:53:29.816Z,99.90
2023-05-13T04:56:01.060Z,99.90
2023-05-13T04:58:28.986Z,99.90
2023-05-13T05:00:57.611Z,99.90
2023-05-13T05:03:25.773Z,99.90
2023-05-13T05:05:53.360Z,99.90
2023-05-13T05:08:20.920Z,99.90
2023-05-13T05:10:48.512Z,99.90
2023-05-13T05:13:16.091Z,99.90
2023-05-13T05:15:43.857Z,99.90
2023-05-13T05:18:11.528Z,99.90
2023-05-13T05:20:39.316Z,99.90
2023-05-13T05:23:07.489Z,99.90
2023-05-13T05:25:35.081Z,99.90
2023-05-13T05:28:05.305Z,99.90
2023-05-13T05:30:39.906Z,99.90
2023-05-13T05:33:08.572Z,99.90
2023-05-13T05:35:38.458Z,99.90
2023-05-13T05:38:07.845Z,99.90
2023-05-13T05:40:43.207Z,99.90
2023-05-13T05:43:11.554Z,99.90
2023-05-13T05:45:40.316Z,99.90
2023-05-13T05:48:08.226Z,99.90
2023-05-13T05:50:36.802Z,99.90
2023-05-13T05:53:07.213Z,99.90
2023-05-13T05:55:35.023Z,99.90
2023-05-13T05:58:05.768Z,99.90
2023-05-13T06:00:33.657Z,99.90
2023-05-13T06:03:01.359Z,99.90
2023-05-13T06:05:28.870Z,99.90
2023-05-13T06:07:56.344Z,99.90
2023-05-13T06:10:24.050Z,99.90
2023-05-13T06:12:51.896Z,99.90
2023-05-13T06:15:19.462Z,99.90
2023-05-13T06:17:47.466Z,99.90
2023-05-13T06:20:15.143Z,99.90
2023-05-13T06:22:43.204Z,99.90
2023-05-13T06:25:11.125Z,99.90
2023-05-13T06:27:38.681Z,99.90
2023-05-13T06:30:07.281Z,99.90
2023-05-13T06:32:34.952Z,99.90
2023-05-13T06:35:02.885Z,99.90
2023-05-13T06:37:30.440Z,99.90
2023-05-13T06:39:58.693Z,99.90
2023-05-13T06:42:26.472Z,99.90
2023-05-13T06:44:54.049Z,99.90
2023-05-13T06:47:24.018Z,99.90
2023-05-13T06:49:51.720Z,99.90
2023-05-13T06:52:19.295Z,99.90
2023-05-13T06:54:46.861Z,99.90
2023-05-13T06:57:14.426Z,99.90
2023-05-13T06:59:42.017Z,99.90
2023-05-13T07:02:10.117Z,99.90
2023-05-13T07:04:38.076Z,99.90
2023-05-13T07:07:05.665Z,99.90
2023-05-13T07:09:34.701Z,99.90
2023-05-13T07:12:02.268Z,99.90
2023-05-13T07:14:29.920Z,99.90
2023-05-13T07:16:58.962Z,99.90
2023-05-13T07:19:26.641Z,99.90
2023-05-13T07:21:54.205Z,99.90
2023-05-13T07:24:21.852Z,99.90
2023-05-13T07:26:49.393Z,99.90
2023-05-13T07:29:16.989Z,99.90
2023-05-13T07:31:44.498Z,99.90
2023-05-13T07:34:12.069Z,99.90
2023-05-13T07:36:39.633Z,99.90
2023-05-13T07:39:08.809Z,99.90
2023-05-13T07:41:37.595Z,99.90
2023-05-13T07:44:06.096Z,99.90
2023-05-13T07:46:33.677Z,99.90
2023-05-13T07:49:01.266Z,99.90
2023-05-13T07:51:29.792Z,99.90
2023-05-13T07:53:57.356Z,99.90
2023-05-13T07:56:24.877Z,99.90
2023-05-13T07:58:52.566Z,99.90
2023-05-13T08:01:20.254Z,99.90
2023-05-13T08:03:47.974Z,99.90
2023-05-13T08:06:15.675Z,99.90
2023-05-13T08:08:43.233Z,99.90
2023-05-13T08:11:11.306Z,99.90
2023-05-13T08:13:38.856Z,99.90
2023-05-13T08:16:09.753Z,99.90
2023-05-13T08:18:37.546Z,99.90
2023-05-13T08:21:05.232Z,99.90
2023-05-13T08:23:44.295Z,99.90
2023-05-13T08:26:13.926Z,99.90
2023-05-13T08:28:42.698Z,99.90
2023-05-13T08:31:14.004Z,99.90
2023-05-13T08:33:42.911Z,99.90
2023-05-13T08:36:10.824Z,99.90
2023-05-13T08:38:38.618Z,99.90
2023-05-13T08:41:09.149Z,99.90
2023-05-13T08:43:39.385Z,99.90
2023-05-13T08:46:11.993Z,99.70
2023-05-13T08:48:42.433Z,99.90
2023-05-13T08:51:10.723Z,99.00
2023-05-13T08:53:40.884Z,99.90
2023-05-13T08:56:12.163Z,99.90
2023-05-13T08:58:39.838Z,99.90
2023-05-13T09:01:08.116Z,98.40
2023-05-13T09:03:36.521Z,99.90
2023-05-13T09:06:04.480Z,98.00
2023-05-13T09:08:32.867Z,98.40
2023-05-13T09:11:01.088Z,99.10
2023-05-13T09:13:28.655Z,99.90
2023-05-13T09:15:56.255Z,97.00
2023-05-13T09:18:32.372Z,99.10
2023-05-13T09:21:27.622Z,98.80
2023-05-13T09:24:19.274Z,98.40
2023-05-13T09:26:48.157Z,98.90
2023-05-13T09:29:23.327Z,99.80
2023-05-13T09:31:56.419Z,96.90
2023-05-13T09:34:31.815Z,97.30
2023-05-13T09:37:09.501Z,96.80
2023-05-13T09:39:42.026Z,94.70
2023-05-13T09:42:19.796Z,93.00
2023-05-13T09:44:48.190Z,93.00
2023-05-13T09:47:16.902Z,94.70
2023-05-13T09:49:55.517Z,96.70
2023-05-13T09:52:23.386Z,95.80
2023-05-13T09:54:51.111Z,93.70
2023-05-13T09:57:18.573Z,95.40
2023-05-13T09:59:46.162Z,94.60
2023-05-13T10:02:17.210Z,94.50
2023-05-13T10:04:44.921Z,92.90
2023-05-13T10:07:13.413Z,90.40
2023-05-13T10:09:41.946Z,88.10
2023-05-13T10:12:10.679Z,89.70
2023-05-13T10:14:38.799Z,86.00
2023-05-13T10:17:08.242Z,87.10
2023-05-13T10:19:36.844Z,84.10
2023-05-13T10:22:05.320Z,85.80
2023-05-13T10:24:33.866Z,78.00
2023-05-13T10:27:02.519Z,81.30
2023-05-13T10:29:30.335Z,85.10
2023-05-13T10:32:00.176Z,86.00
2023-05-13T10:34:29.242Z,71.60
2023-05-13T10:37:43.924Z,74.50
2023-05-13T10:41:09.672Z,75.10
2023-05-13T10:43:37.669Z,74.90
2023-05-13T10:46:07.245Z,74.80
2023-05-13T10:48:51.190Z,77.50
2023-05-13T10:51:25.100Z,75.90
2023-05-13T10:53:58.888Z,72.60
2023-05-13T10:56:28.890Z,71.40
2023-05-13T10:59:03.089Z,78.60
2023-05-13T11:01:44.512Z,72.20
2023-05-13T11:04:18.327Z,71.70
2023-05-13T11:06:47.853Z,74.00
2023-05-13T11:09:21.155Z,77.60
2023-05-13T11:11:56.720Z,76.50
2023-05-13T11:14:30.416Z,76.80
2023-05-13T11:17:00.979Z,72.00
2023-05-13T11:19:36.295Z,77.30
2023-05-13T11:22:14.635Z,71.60
2023-05-13T11:24:45.667Z,72.30
2023-05-13T11:27:19.751Z,69.90
2023-05-13T11:29:54.042Z,69.50
2023-05-13T11:32:57.629Z,74.30
2023-05-13T11:35:32.706Z,68.10
2023-05-13T11:38:04.498Z,70.80
2023-05-13T11:40:38.477Z,70.50
2023-05-13T11:43:06.891Z,70.10
2023-05-13T11:45:40.337Z,75.20
2023-05-13T11:48:24.748Z,71.10
2023-05-13T11:50:53.036Z,67.20
2023-05-13T11:53:22.644Z,69.70
2023-05-13T11:55:50.590Z,68.10
2023-05-13T11:58:18.096Z,68.00
2023-05-13T12:00:46.870Z,68.40
2023-05-13T12:03:16.527Z,68.70
2023-05-13T12:05:47.891Z,71.90
2023-05-13T12:08:15.372Z,69.50
2023-05-13T12:10:46.353Z,72.40
2023-05-13T12:13:14.257Z,69.30
2023-05-13T12:15:42.659Z,69.40
2023-05-13T12:18:10.562Z,67.60
2023-05-13T12:20:38.658Z,68.10
2023-05-13T12:23:06.678Z,63.70
2023-05-13T12:25:51.652Z,65.80
2023-05-13T12:28:25.067Z,63.70
2023-05-13T12:31:02.489Z,63.00
2023-05-13T12:33:41.090Z,68.70
2023-05-13T12:36:36.054Z,66.40
2023-05-13T12:39:09.519Z,65.50
2023-05-13T12:41:42.538Z,68.10
2023-05-13T12:44:13.606Z,70.10
2023-05-13T12:46:54.973Z,68.00
2023-05-13T12:49:22.704Z,66.00
2023-05-13T12:51:52.066Z,69.10
2023-05-13T12:54:19.890Z,64.90
2023-05-13T12:56:48.594Z,66.00
2023-05-13T12:59:17.075Z,66.30
2023-05-13T13:01:44.704Z,68.00
2023-05-13T13:04:12.327Z,66.50
2023-05-13T13:06:40.288Z,62.90
2023-05-13T13:09:07.763Z,62.50
2023-05-13T13:11:35.221Z,65.50
2023-05-13T13:14:02.697Z,64.60
2023-05-13T13:16:30.245Z,67.20
2023-05-13T13:19:01.838Z,65.50
2023-05-13T13:21:29.680Z,67.30
2023-05-13T13:23:57.249Z,66.30
2023-05-13T13:26:24.817Z,66.30
2023-05-13T13:28:52.301Z,65.00
2023-05-13T13:31:20.255Z,65.30
2023-05-13T13:33:47.777Z,66.20
2023-05-13T13:36:15.353Z,67.00
2023-05-13T13:38:42.791Z,66.60
2023-05-13T13:41:10.380Z,67.00
2023-05-13T13:43:38.353Z,66.70
2023-05-13T13:46:06.038Z,66.30
2023-05-13T13:48:33.565Z,67.90
2023-05-13T13:51:01.142Z,67.50
2023-05-13T13:53:28.684Z,68.80
2023-05-13T13:55:56.134Z,68.10
2023-05-13T13:58:23.628Z,70.70
2023-05-13T14:00:51.888Z,67.40
2023-05-13T14:03:19.679Z,69.40
2023-05-13T14:05:47.263Z,66.10
2023-05-13T14:08:14.770Z,69.50
2023-05-13T14:10:42.270Z,70.90
2023-05-13T14:13:09.782Z,68.90
2023-05-13T14:15:39.284Z,70.40
2023-05-13T14:18:09.897Z,71.10
2023-05-13T14:20:38.551Z,71.30
2023-05-13T14:23:06.048Z,70.90
2023-05-13T14:25:33.533Z,72.10
2023-05-13T14:28:01.067Z,70.80
2023-05-13T14:30:28.499Z,69.50
2023-05-13T14:32:56.119Z,68.70
2023-05-13T14:35:23.601Z,66.90
2023-05-13T14:37:51.102Z,67.70
2023-05-13T14:40:18.641Z,69.10
2023-05-13T14:42:46.300Z,69.70
2023-05-13T14:45:16.828Z,73.40
2023-05-13T14:47:45.972Z,68.00
2023-05-13T14:50:15.313Z,70.00
2023-05-13T14:52:42.789Z,68.40
2023-05-13T14:55:11.102Z,68.30
2023-05-13T14:57:39.333Z,67.40
2023-05-13T15:00:07.886Z,68.30
2023-05-13T15:02:35.482Z,68.00
2023-05-13T15:05:03.304Z,67.20
2023-05-13T15:07:30.914Z,67.30
2023-05-13T15:09:58.546Z,68.00
2023-05-13T15:12:26.577Z,67.70
2023-05-13T15:14:55.641Z,68.40
2023-05-13T15:17:23.287Z,67.90
2023-05-13T15:19:51.032Z,68.90
2023-05-13T15:22:18.909Z,69.50
2023-05-13T15:24:46.556Z,68.90
2023-05-13T15:27:14.539Z,71.20
2023-05-13T15:29:42.023Z,73.00
2023-05-13T15:32:09.578Z,70.80
2023-05-13T15:34:37.069Z,71.20
2023-05-13T15:37:04.657Z,72.60
2023-05-13T15:39:32.217Z,70.60
2023-05-13T15:41:59.809Z,70.20
2023-05-13T15:44:28.120Z,69.90
2023-05-13T15:46:55.993Z,71.50
2023-05-13T15:49:23.594Z,73.30
2023-05-13T15:51:51.638Z,76.80
2023-05-13T15:54:19.105Z,78.50
2023-05-13T15:56:46.704Z,75.20
2023-05-13T15:59:14.243Z,74.80
2023-05-13T16:01:42.071Z,72.50
2023-05-13T16:04:09.894Z,73.30
2023-05-13T16:06:37.400Z,77.40
2023-05-13T16:09:05.194Z,78.30
2023-05-13T16:11:33.032Z,78.60
2023-05-13T16:14:00.836Z,78.70
2023-05-13T16:16:28.412Z,78.10
2023-05-13T16:18:56.041Z,79.60
2023-05-13T16:21:23.599Z,78.00
2023-05-13T16:23:51.213Z,75.70
2023-05-13T16:26:19.018Z,77.40
2023-05-13T16:28:46.455Z,78.60
2023-05-13T16:31:14.060Z,78.30
2023-05-13T16:33:41.535Z,80.80
2023-05-13T16:36:11.929Z,76.40
2023-05-13T16:38:41.733Z,77.70
2023-05-13T16:41:09.468Z,77.60
2023-05-13T16:43:37.079Z,77.80
2023-05-13T16:46:04.667Z,79.20
2023-05-13T16:48:32.305Z,78.90
2023-05-13T16:50:59.778Z,78.50
2023-05-13T16:53:27.430Z,80.30
2023-05-13T16:55:55.051Z,80.50
2023-05-13T16:58:22.519Z,80.40
2023-05-13T17:00:50.085Z,80.00
2023-05-13T17:03:17.847Z,78.30
2023-05-13T17:05:45.503Z,78.90
2023-05-13T17:08:13.059Z,82.90
2023-05-13T17:10:40.669Z,85.70
2023-05-13T17:13:08.130Z,87.40
2023-05-13T17:15:35.836Z,89.40
2023-05-13T17:18:03.586Z,90.20
2023-05-13T17:20:31.148Z,91.10
2023-05-13T17:22:58.704Z,91.50
2023-05-13T17:25:26.271Z,91.60
2023-05-13T17:27:53.785Z,91.50
2023-05-13T17:30:23.021Z,92.00
2023-05-13T17:32:50.869Z,92.90
2023-05-13T17:35:18.536Z,94.20
2023-05-13T17:37:46.091Z,95.30
2023-05-13T17:40:14.096Z,96.30
2023-05-13T17:42:41.670Z,97.60
2023-05-13T17:45:10.044Z,98.60
2023-05-13T17:47:37.768Z,99.90
2023-05-13T17:50:06.092Z,99.90
2023-05-13T17:52:33.792Z,99.90
2023-05-13T17:55:01.250Z,99.90
2023-05-13T17:57:29.160Z,99.90
2023-05-13T17:59:57.993Z,99.90
2023-05-13T18:02:25.696Z,99.90
2023-05-13T18:04:53.187Z,99.90
2023-05-13T18:07:20.753Z,99.90
2023-05-13T18:09:49.960Z,99.90
2023-05-13T18:12:18.409Z,99.90
2023-05-13T18:14:45.951Z,99.90
2023-05-13T18:17:13.429Z,99.90
2023-05-13T18:19:41.245Z,99.90
2023-05-13T18:22:09.458Z,99.90
2023-05-13T18:24:41.253Z,99.90
2023-05-13T18:27:09.251Z,99.90
2023-05-13T18:29:37.226Z,99.90
2023-05-13T18:32:05.217Z,99.90
2023-05-13T18:34:34.055Z,99.90
2023-05-13T18:37:01.994Z,99.90
2023-05-13T18:39:29.885Z,99.90
2023-05-13T18:41:57.367Z,99.90
2023-05-13T18:44:24.990Z,99.90
2023-05-13T18:46:52.828Z,99.90
2023-05-13T18:49:20.394Z,99.90
2023-05-13T18:51:48.059Z,99.90
2023-05-13T18:54:15.610Z,99.90
2023-05-13T18:56:44.329Z,99.90
2023-05-13T18:59:12.659Z,99.90
2023-05-13T19:01:40.479Z,99.90
2023-05-13T19:04:08.283Z,99.90
2023-05-13T19:06:38.240Z,99.90
2023-05-13T19:09:05.917Z,99.90
2023-05-13T19:11:33.638Z,99.90
2023-05-13T19:14:01.112Z,99.90
2023-05-13T19:16:28.869Z,99.90
2023-05-13T19:18:56.535Z,99.90
2023-05-13T19:21:24.282Z,99.90
2023-05-13T19:23:51.834Z,99.90
2023-05-13T19:26:19.505Z,99.90
2023-05-13T19:28:47.536Z,99.90
2023-05-13T19:31:15.257Z,99.90
2023-05-13T19:33:44.613Z,99.90
2023-05-13T19:36:13.690Z,99.90
2023-05-13T19:38:41.148Z,99.90
2023-05-13T19:41:08.625Z,99.90
2023-05-13T19:43:36.069Z,99.90
2023-05-13T19:46:03.632Z,99.90
2023-05-13T19:48:31.102Z,99.90
2023-05-13T19:50:58.647Z,99.90
2023-05-13T19:53:26.362Z,99.90
2023-05-13T19:55:53.879Z,99.90
2023-05-13T19:58:21.704Z,99.90
2023-05-13T20:00:49.239Z,99.90
2023-05-13T20:03:17.027Z,99.90
2023-05-13T20:05:44.519Z,99.90
2023-05-13T20:08:12.449Z,99.90
2023-05-13T20:10:40.612Z,99.90
2023-05-13T20:13:08.037Z,99.90
2023-05-13T20:15:35.504Z,99.90
2023-05-13T20:18:03.028Z,99.90
2023-05-13T20:20:30.563Z,99.90
2023-05-13T20:22:58.096Z,99.90
2023-05-13T20:25:25.635Z,99.90
2023-05-13T20:27:53.097Z,99.90
2023-05-13T20:30:22.111Z,99.90
2023-05-13T20:32:49.857Z,99.90
2023-05-13T20:35:17.322Z,99.90
2023-05-13T20:37:44.827Z,99.90
2023-05-13T20:40:12.695Z,99.90
2023-05-13T20:42:40.306Z,99.90
2023-05-13T20:45:08.888Z,99.90
2023-05-13T20:47:36.594Z,99.90
2023-05-13T20:50:04.709Z,99.90
2023-05-13T20:52:32.201Z,99.90
2023-05-13T20:54:59.832Z,99.90
2023-05-13T20:57:27.739Z,99.90
2023-05-13T20:59:55.787Z,99.90
2023-05-13T21:02:23.363Z,99.90
2023-05-13T21:04:50.923Z,99.90
2023-05-13T21:07:18.508Z,99.90
2023-05-13T21:09:45.984Z,99.90
2023-05-13T21:12:13.562Z,99.90
2023-05-13T21:14:41.312Z,99.90
2023-05-13T21:17:09.482Z,99.90
2023-05-13T21:19:36.979Z,99.90
2023-05-13T21:22:06.155Z,99.90
2023-05-13T21:24:33.631Z,99.90
2023-05-13T21:27:01.118Z,99.90
2023-05-13T21:29:30.390Z,99.90
2023-05-13T21:31:58.101Z,99.90
2023-05-13T21:34:25.696Z,99.90
2023-05-13T21:36:53.377Z,99.90
2023-05-13T21:39:21.059Z,99.90
2023-05-13T21:41:48.604Z,99.90
2023-05-13T21:44:16.539Z,99.90
2023-05-13T21:46:44.050Z,99.90
2023-05-13T21:49:12.236Z,99.90
2023-05-13T21:51:40.167Z,99.90
2023-05-13T21:54:07.618Z,99.90
2023-05-13T21:56:35.106Z,99.90
2023-05-13T21:59:02.578Z,99.90
2023-05-13T22:01:30.154Z,99.90
2023-05-13T22:03:57.674Z,99.90
2023-05-13T22:06:25.220Z,99.90
2023-05-13T22:08:52.720Z,99.90
2023-05-13T22:11:20.224Z,99.90
2023-05-13T22:13:47.756Z,99.90
2023-05-13T22:16:15.346Z,99.90
2023-05-13T22:18:43.114Z,99.90
2023-05-13T22:21:10.824Z,99.90
2023-05-13T22:23:38.298Z,99.90
2023-05-13T22:26:05.831Z,99.90
2023-05-13T22:28:33.432Z,99.90
2023-05-13T22:31:01.069Z,99.90
2023-05-13T22:33:28.631Z,99.90
2023-05-13T22:35:56.107Z,99.90
2023-05-13T22:38:23.636Z,99.90
2023-05-13T22:40:51.103Z,99.90
2023-05-13T22:43:18.592Z,99.90
2023-05-13T22:45:46.089Z,99.90
2023-05-13T22:48:13.698Z,99.90
2023-05-13T22:50:41.659Z,99.90
2023-05-13T22:53:09.119Z,99.90
2023-05-13T22:55:36.720Z,99.90
2023-05-13T22:58:04.362Z,99.90
2023-05-13T23:00:32.200Z,99.90
2023-05-13T23:02:59.707Z,99.90
2023-05-13T23:05:27.238Z,99.90
2023-05-13T23:07:54.768Z,99.90
2023-05-13T23:10:22.417Z,99.90
2023-05-13T23:12:50.041Z,99.90
2023-05-13T23:15:17.734Z,99.90
2023-05-13T23:17:45.371Z,99.90
2023-05-13T23:20:13.227Z,99.90
2023-05-13T23:22:41.034Z,99.90
2023-05-13T23:25:09.530Z,99.90
2023-05-13T23:27:37.042Z,99.90
2023-05-13T23:30:05.280Z,99.90
2023-05-13T23:32:32.873Z,99.90
2023-05-13T23:35:00.336Z,99.90
2023-05-13T23:37:27.752Z,99.90
2023-05-13T23:39:55.221Z,99.90
2023-05-13T23:42:22.688Z,99.90
2023-05-13T23:44:50.385Z,99.90
2023-05-13T23:47:17.900Z,99.90
2023-05-13T23:49:45.631Z,99.90
2023-05-13T23:52:13.080Z,99.90
2023-05-13T23:54:40.569Z,99.90
2023-05-13T23:57:08.131Z,99.90
2023-05-13T23:59:35.623Z,99.90
